EDT,Max TemperatureF,Mean TemperatureF,Min TemperatureF,Max Dew PointF,MeanDew PointF,Min DewpointF,Max Humidity, Mean Humidity, Min Humidity, Max Sea Level PressureIn, Mean Sea Level PressureIn, Min Sea Level PressureIn, Max VisibilityMiles, Mean VisibilityMiles, Min VisibilityMiles, Max Wind SpeedMPH, Mean Wind SpeedMPH, Max Gust SpeedMPH,PrecipitationIn, CloudCover, Events, WindDirDegrees
2013-5-1,82,70,57,54,51,48,77,47,30,30.17,30.15,30.11,10,9,0,14,6,18,0.00,0,,174
2013-5-2,78,68,59,54,51,48,82,52,34,30.19,30.14,30.09,10,10,10,12,7,17,0.00,2,,154
2013-5-3,75,62,48,55,50,45,87,57,38,30.06,30.01,29.96,10,10,10,14,6,21,0.00,4,,128
2013-5-4,71,65,59,46,42,36,55,41,27,30.04,30.02,29.99,10,10,10,17,11,23,0.00,0,,111
2013-5-5,71,63,55,45,41,37,58,42,29,30.04,30.02,29.98,10,10,10,14,10,21,0.00,0,,99
2013-5-6,77,66,55,48,40,32,52,38,19,30.03,29.99,29.95,10,10,10,8,6,,0.00,3,,91
2013-5-7,75,63,51,50,47,45,82,46,34,30.05,30.01,29.98,10,10,10,9,4,,0.00,4,,79
2013-5-8,78,66,55,50,47,41,77,44,29,30.05,30.01,29.97,10,10,10,8,2,,0.00,3,,338
2013-5-9,80,64,48,54,48,39,93,50,23,30.00,29.96,29.92,10,10,10,14,2,23,0.00,3,Rain,217
2013-5-10,62,55,48,59,51,45,94,83,67,29.91,29.84,29.79,10,7,2,15,10,21,0.00,7,Rain,272
2013-5-11,53,48,44,46,43,34,93,82,58,29.92,29.89,29.83,10,6,2,12,8,22,0.00,8,Rain,257
2013-5-12,50,46,41,28,26,25,61,49,37,30.12,30.08,30.02,10,10,10,18,14,136,0.00,7,,302
2013-5-13,57,44,32,32,22,16,87,40,20,30.19,30.16,30.10,10,10,10,13,3,26,0.00,0,,332
2013-5-14,84,67,50,48,42,34,54,35,26,29.95,29.82,29.70,10,10,10,18,11,25,0.00,2,,225
2013-5-15,80,76,71,55,46,41,57,36,26,29.83,29.80,29.72,10,10,10,14,11,23,0.00,0,,297
2013-5-16,82,66,50,48,40,36,94,32,19,29.95,29.93,29.88,10,10,10,8,2,,0.00,0,,341
2013-5-17,80,68,55,46,43,37,54,35,28,30.08,30.05,30.00,10,10,10,14,9,23,0.00,4,,100
2013-5-18,82,70,57,54,49,41,55,43,34,30.15,30.06,30.01,10,10,10,12,6,,0.00,7,,136
2013-5-19,87,74,62,55,53,48,59,44,33,30.02,29.96,29.88,10,10,10,9,3,,0.00,1,,175
2013-5-20,87,79,71,66,62,55,83,52,37,29.89,29.84,29.79,10,9,7,16,10,22,0.00,3,,193
2013-5-21,82,73,64,63,60,59,94,60,45,29.81,29.77,29.72,10,10,10,16,11,26,0.00,4,,218
2013-5-22,75,70,66,64,61,55,88,78,50,29.72,29.70,29.68,10,10,7,14,8,23,0.00,7,Rain,213
2013-5-23,57,52,48,54,49,45,100,90,87,30.14,29.93,29.79,10,6,2,14,11,21,0.00,8,Rain,297
2013-5-24,57,47,37,37,34,30,93,56,38,30.39,30.35,30.30,10,10,10,12,5,16,0.00,1,,333
2013-5-25,66,54,42,41,37,32,87,48,28,30.40,30.35,30.28,10,10,10,6,1,,0.00,0,,303
2013-5-26,71,60,50,39,37,36,66,39,27,30.32,30.28,30.22,10,10,10,12,8,,0.00,0,,116
2013-5-27,57,54,51,54,51,48,94,90,82,30.18,30.08,29.94,10,6,2,17,13,23,0.00,8,Rain,110
2013-5-28,78,71,64,68,65,63,94,76,61,29.89,29.85,29.81,10,10,10,15,8,23,0.00,7,,206
2013-5-29,82,76,69,66,62,59,78,62,51,30.01,29.97,29.94,10,10,10,14,11,23,0.00,3,,224
2013-5-30,86,80,75,64,63,61,65,56,43,30.03,30.00,29.93,10,10,10,18,11,32,0.00,4,,200
2013-5-31,75,70,66,66,64,63,88,76,69,29.96,29.91,29.80,10,10,10,18,11,21,0.00,4,Rain,182